Time;durP1;ratioP1;P1;durP2;ratioP2;P2;SDS_P1;SDS_P2;PMS_P1;PMS_P2;Temp;Humidity;BMP_temperature;BMP_pressure;BME280_temperature;BME280_humidity;BME280_pressure;Samples;Min_cycle;Max_cycle;Signal;HPM_P1;HPM_P2
2023/03/17 00:00:18;;;;;;;10.48;5.10;;;;;;;;;;7398860;19;20356;-68
2023/03/17 00:02:45;;;;;;;10.73;4.47;;;;;;;;;;7400362;19;20006;-69
2023/03/17 00:05:22;;;;;;;7.97;4.25;;;;;;;;;;7400449;19;20014;-69
2023/03/17 00:07:49;;;;;;;9.52;4.60;;;;;;;;;;7400044;19;20027;-68
2023/03/17 00:10:24;;;;;;;8.90;4.13;;;;;;;;;;7399225;19;20053;-69
2023/03/17 00:12:55;;;;;;;8.60;4.05;;;;;;;;;;7400744;19;20003;-69
2023/03/17 00:15:21;;;;;;;9.02;4.20;;;;;;;;;;7400553;19;20401;-68
2023/03/17 00:17:48;;;;;;;9.15;4.40;;;;;;;;;;7395643;19;20356;-68
2023/03/17 00:20:22;;;;;;;7.07;4.20;;;;;;;;;;7389476;19;20006;-68
2023/03/17 00:22:47;;;;;;;9.02;4.32;;;;;;;;;;7392821;19;20346;-69
2023/03/17 00:25:20;;;;;;;8.18;4.47;;;;;;;;;;7392527;19;19999;-67
2023/03/17 00:27:47;;;;;;;8.13;4.40;;;;;;;;;;7394426;19;20069;-69
2023/03/17 00:30:13;;;;;;;8.40;4.13;;;;;;;;;;7392047;19;20007;-68
2023/03/17 00:32:38;;;;;;;10.45;5.32;;;;;;;;;;7392463;19;20011;-69
2023/03/17 00:35:14;;;;;;;8.15;4.38;;;;;;;;;;7392413;19;20041;-67
2023/03/17 00:37:40;;;;;;;9.18;4.65;;;;;;;;;;7393347;19;20002;-67
2023/03/17 00:40:29;;;;;;;10.35;4.63;;;;;;;;;;7388765;19;20122;-69
2023/03/17 00:42:57;;;;;;;7.18;4.00;;;;;;;;;;7392112;19;20297;-69
2023/03/17 00:45:24;;;;;;;7.85;4.28;;;;;;;;;;7392257;19;20120;-68
2023/03/17 00:47:52;;;;;;;10.23;4.72;;;;;;;;;;7391835;19;19999;-69
2023/03/17 00:50:23;;;;;;;8.65;4.97;;;;;;;;;;7390961;19;20002;-69
2023/03/17 00:52:50;;;;;;;7.80;4.20;;;;;;;;;;7392936;19;20584;-70
2023/03/17 00:55:18;;;;;;;9.95;4.65;;;;;;;;;;7391702;19;20010;-68
2023/03/17 00:57:45;;;;;;;11.25;4.93;;;;;;;;;;7391808;19;20011;-69
2023/03/17 01:00:20;;;;;;;10.10;4.72;;;;;;;;;;7389786;19;20007;-69
2023/03/17 01:02:46;;;;;;;10.82;4.68;;;;;;;;;;7390060;19;20390;-68
2023/03/17 01:05:12;;;;;;;8.85;4.70;;;;;;;;;;7392204;19;20142;-69
2023/03/17 01:07:39;;;;;;;9.45;4.60;;;;;;;;;;7393474;19;20002;-69
2023/03/17 01:10:16;;;;;;;8.57;4.57;;;;;;;;;;7394518;19;20003;-69
2023/03/17 01:12:44;;;;;;;11.00;4.70;;;;;;;;;;7391868;19;20002;-69
2023/03/17 01:15:11;;;;;;;9.05;4.18;;;;;;;;;;7389915;19;20441;-69
2023/03/17 01:17:38;;;;;;;13.25;4.93;;;;;;;;;;7391903;19;20006;-68
2023/03/17 01:20:05;;;;;;;15.45;4.38;;;;;;;;;;7390389;19;20391;-68
2023/03/17 01:22:30;;;;;;;8.10;4.50;;;;;;;;;;7389612;19;20031;-69
2023/03/17 01:24:56;;;;;;;8.80;4.60;;;;;;;;;;7391392;19;19998;-68
2023/03/17 01:27:21;;;;;;;11.40;4.53;;;;;;;;;;7391282;19;20687;-69
2023/03/17 01:29:46;;;;;;;9.00;4.78;;;;;;;;;;7390932;19;20014;-69
2023/03/17 01:32:12;;;;;;;7.85;4.43;;;;;;;;;;7388844;19;20002;-68
2023/03/17 01:34:37;;;;;;;9.32;4.53;;;;;;;;;;7391808;19;20070;-71
2023/03/17 01:37:03;;;;;;;9.45;4.32;;;;;;;;;;7391525;19;20002;-68
2023/03/17 01:39:28;;;;;;;8.40;4.45;;;;;;;;;;7388893;19;20002;-70
2023/03/17 01:42:00;;;;;;;8.70;4.22;;;;;;;;;;7388891;19;20009;-69
2023/03/17 01:44:26;;;;;;;9.82;4.50;;;;;;;;;;7390815;19;20062;-68
2023/03/17 01:46:52;;;;;;;9.32;4.90;;;;;;;;;;7391576;19;20003;-71
2023/03/17 01:49:32;;;;;;;11.38;5.07;;;;;;;;;;7391274;19;20066;-68
2023/03/17 01:52:06;;;;;;;9.52;4.38;;;;;;;;;;7388479;19;20084;-69
2023/03/17 01:54:41;;;;;;;8.48;4.88;;;;;;;;;;7390287;19;20415;-68
2023/03/17 01:57:30;;;;;;;8.07;4.57;;;;;;;;;;7390660;19;20015;-70
2023/03/17 02:00:04;;;;;;;7.00;4.20;;;;;;;;;;7388379;19;20787;-68
2023/03/17 02:02:33;;;;;;;8.50;4.10;;;;;;;;;;7389581;19;20006;-68
2023/03/17 02:04:59;;;;;;;9.00;4.30;;;;;;;;;;7389833;19;20071;-70
2023/03/17 02:07:26;;;;;;;10.80;5.00;;;;;;;;;;7389639;19;20006;-67
2023/03/17 02:09:53;;;;;;;10.15;4.82;;;;;;;;;;7389628;19;19998;-68
2023/03/17 02:12:21;;;;;;;8.60;4.63;;;;;;;;;;7387269;19;20019;-70
2023/03/17 02:14:46;;;;;;;7.90;4.50;;;;;;;;;;7389508;19;19998;-69
2023/03/17 02:17:12;;;;;;;11.15;4.57;;;;;;;;;;7387957;19;20366;-69
2023/03/17 02:19:38;;;;;;;17.70;5.55;;;;;;;;;;7388855;19;20007;-69
2023/03/17 02:22:03;;;;;;;11.88;4.38;;;;;;;;;;7386940;19;19998;-68
2023/03/17 02:24:31;;;;;;;10.60;4.97;;;;;;;;;;7388802;19;19999;-68
2023/03/17 02:27:02;;;;;;;11.07;4.78;;;;;;;;;;7391668;19;20006;-68
2023/03/17 02:29:27;;;;;;;14.00;5.10;;;;;;;;;;7388972;19;20002;-69
2023/03/17 02:31:53;;;;;;;12.15;4.60;;;;;;;;;;7386826;19;20031;-69
2023/03/17 02:34:19;;;;;;;12.07;5.15;;;;;;;;;;7388639;19;20126;-67
2023/03/17 02:36:45;;;;;;;9.60;4.85;;;;;;;;;;7388350;19;20029;-69
2023/03/17 02:39:12;;;;;;;11.27;5.10;;;;;;;;;;7391234;19;20075;-69
2023/03/17 02:41:37;;;;;;;11.07;4.70;;;;;;;;;;7384445;19;20010;-69
2023/03/17 02:44:03;;;;;;;12.73;5.15;;;;;;;;;;7388343;19;20009;-68
2023/03/17 02:46:29;;;;;;;10.60;4.95;;;;;;;;;;7386148;19;20085;-68
2023/03/17 02:48:54;;;;;;;8.50;4.70;;;;;;;;;;7387995;19;20002;-68
2023/03/17 02:51:20;;;;;;;8.80;4.70;;;;;;;;;;7386389;19;20002;-68
2023/03/17 02:53:46;;;;;;;10.35;5.00;;;;;;;;;;7388172;19;20041;-69
2023/03/17 02:56:11;;;;;;;10.45;5.00;;;;;;;;;;7386418;19;20373;-68
2023/03/17 02:58:36;;;;;;;10.38;4.50;;;;;;;;;;7388136;19;20003;-69
2023/03/17 03:01:02;;;;;;;10.10;5.05;;;;;;;;;;7385405;19;20437;-69
2023/03/17 03:03:27;;;;;;;8.48;4.13;;;;;;;;;;7386191;19;19999;-69
2023/03/17 03:05:53;;;;;;;9.20;4.75;;;;;;;;;;7387685;19;20019;-69
2023/03/17 03:08:19;;;;;;;9.10;4.55;;;;;;;;;;7387478;19;20003;-69
2023/03/17 03:10:44;;;;;;;10.05;4.80;;;;;;;;;;7386541;19;20048;-69
2023/03/17 03:13:10;;;;;;;8.70;4.45;;;;;;;;;;7385550;19;20002;-69
2023/03/17 03:15:36;;;;;;;10.80;4.90;;;;;;;;;;7389470;19;20089;-68
2023/03/17 03:18:01;;;;;;;7.55;4.18;;;;;;;;;;7389200;19;20001;-68
2023/03/17 03:20:27;;;;;;;8.05;4.32;;;;;;;;;;7385701;19;20027;-71
2023/03/17 03:22:52;;;;;;;11.68;5.07;;;;;;;;;;7387370;19;20056;-69
2023/03/17 03:25:17;;;;;;;9.15;4.28;;;;;;;;;;7387092;19;20459;-68
2023/03/17 03:27:46;;;;;;;8.93;4.32;;;;;;;;;;7385759;19;20026;-68
2023/03/17 03:30:11;;;;;;;12.73;5.93;;;;;;;;;;7386241;19;20006;-69
2023/03/17 03:32:36;;;;;;;11.05;4.78;;;;;;;;;;7386714;19;20495;-69
2023/03/17 03:35:03;;;;;;;10.48;4.70;;;;;;;;;;7386690;19;20002;-69
2023/03/17 03:37:28;;;;;;;16.27;5.38;;;;;;;;;;7386781;19;20003;-68
2023/03/17 03:39:53;;;;;;;9.77;4.88;;;;;;;;;;7385689;19;20444;-69
2023/03/17 03:42:19;;;;;;;10.35;5.15;;;;;;;;;;7384312;19;20013;-69
2023/03/17 03:44:44;;;;;;;14.50;5.00;;;;;;;;;;7386722;19;19995;-69
2023/03/17 03:47:10;;;;;;;13.02;4.13;;;;;;;;;;7386658;19;19998;-69
2023/03/17 03:49:35;;;;;;;12.27;5.20;;;;;;;;;;7384932;19;20706;-69
2023/03/17 03:52:01;;;;;;;10.10;4.70;;;;;;;;;;7383969;19;20511;-69
2023/03/17 03:54:26;;;;;;;9.00;5.10;;;;;;;;;;7393547;19;20002;-69
2023/03/17 03:56:51;;;;;;;9.18;4.70;;;;;;;;;;7393824;19;20002;-69
2023/03/17 03:59:17;;;;;;;9.20;4.55;;;;;;;;;;7393033;19;19999;-69
2023/03/17 04:01:42;;;;;;;11.55;4.85;;;;;;;;;;7389373;19;20024;-69
2023/03/17 04:04:07;;;;;;;8.88;4.90;;;;;;;;;;7394026;19;19998;-70
2023/03/17 04:06:32;;;;;;;10.10;4.93;;;;;;;;;;7393693;19;20014;-69
2023/03/17 04:08:58;;;;;;;8.85;4.65;;;;;;;;;;7391513;19;20671;-70
2023/03/17 04:11:23;;;;;;;13.50;4.82;;;;;;;;;;7391473;19;20002;-69
2023/03/17 04:13:48;;;;;;;9.80;5.13;;;;;;;;;;7393497;19;20507;-70
2023/03/17 04:16:15;;;;;;;8.90;4.53;;;;;;;;;;7393338;19;20003;-68
2023/03/17 04:18:40;;;;;;;9.30;4.60;;;;;;;;;;7393838;19;20003;-70
2023/03/17 04:21:07;;;;;;;9.82;5.03;;;;;;;;;;7391199;19;20002;-68
2023/03/17 04:23:32;;;;;;;11.00;4.75;;;;;;;;;;7393427;19;20479;-69
2023/03/17 04:25:57;;;;;;;11.18;5.15;;;;;;;;;;7397217;19;20009;-69
2023/03/17 04:28:23;;;;;;;10.13;4.95;;;;;;;;;;7392184;19;20014;-69
2023/03/17 04:30:49;;;;;;;11.05;5.00;;;;;;;;;;7391968;19;20467;-68
2023/03/17 04:33:14;;;;;;;11.02;5.00;;;;;;;;;;7392605;19;20456;-69
2023/03/17 04:35:40;;;;;;;11.45;5.43;;;;;;;;;;7393075;19;20102;-69
2023/03/17 04:38:05;;;;;;;9.98;5.07;;;;;;;;;;7392927;19;20003;-69
2023/03/17 04:40:31;;;;;;;9.27;5.53;;;;;;;;;;7390568;19;20009;-69
2023/03/17 04:42:56;;;;;;;10.45;4.78;;;;;;;;;;7392859;19;20423;-69
2023/03/17 04:45:21;;;;;;;15.57;5.50;;;;;;;;;;7392807;19;20436;-69
2023/03/17 04:47:47;;;;;;;9.80;4.80;;;;;;;;;;7393787;19;20015;-68
2023/03/17 04:50:13;;;;;;;11.13;5.25;;;;;;;;;;7391831;19;20352;-70
2023/03/17 04:52:39;;;;;;;14.57;4.97;;;;;;;;;;7392963;19;20002;-70
2023/03/17 04:55:07;;;;;;;10.70;5.00;;;;;;;;;;7392972;19;20412;-68
2023/03/17 04:57:32;;;;;;;15.13;5.13;;;;;;;;;;7392481;19;20002;-69
2023/03/17 04:59:58;;;;;;;10.15;4.78;;;;;;;;;;7391119;19;20388;-69
2023/03/17 05:02:23;;;;;;;16.77;4.93;;;;;;;;;;7390236;19;20010;-69
2023/03/17 05:04:49;;;;;;;13.48;5.10;;;;;;;;;;7389529;19;20006;-68
2023/03/17 05:07:14;;;;;;;20.58;5.40;;;;;;;;;;7388006;19;20050;-69
2023/03/17 05:09:40;;;;;;;15.85;5.15;;;;;;;;;;7388103;19;20008;-69
2023/03/17 05:12:07;;;;;;;8.95;4.88;;;;;;;;;;7390850;19;19999;-69
2023/03/17 05:14:32;;;;;;;11.13;5.28;;;;;;;;;;7391582;19;20374;-68
2023/03/17 05:16:58;;;;;;;13.50;4.93;;;;;;;;;;7389624;19;20582;-68
2023/03/17 05:19:23;;;;;;;8.43;4.38;;;;;;;;;;7322903;19;19999;-68
2023/03/17 05:21:48;;;;;;;9.05;4.75;;;;;;;;;;7383545;19;19998;-66
2023/03/17 05:24:14;;;;;;;9.80;4.88;;;;;;;;;;7393608;19;20357;-67
2023/03/17 05:26:39;;;;;;;11.10;5.32;;;;;;;;;;7390669;19;20031;-66
2023/03/17 05:29:05;;;;;;;11.60;5.45;;;;;;;;;;7392817;19;20405;-67
2023/03/17 05:31:31;;;;;;;13.20;5.70;;;;;;;;;;7390620;19;20319;-67
2023/03/17 05:33:57;;;;;;;10.95;5.40;;;;;;;;;;7392865;19;20004;-67
2023/03/17 05:36:23;;;;;;;9.32;5.07;;;;;;;;;;7389546;19;20539;-66
2023/03/17 05:38:48;;;;;;;11.15;5.22;;;;;;;;;;7389004;19;20012;-67
2023/03/17 05:41:14;;;;;;;10.25;4.90;;;;;;;;;;7388411;19;20018;-67
2023/03/17 05:43:40;;;;;;;7.97;4.38;;;;;;;;;;7388896;19;20002;-68
2023/03/17 05:46:05;;;;;;;10.85;5.35;;;;;;;;;;7384642;19;20118;-67
2023/03/17 05:48:31;;;;;;;9.50;4.97;;;;;;;;;;7386668;19;20062;-69
2023/03/17 05:50:57;;;;;;;9.93;5.03;;;;;;;;;;7383906;19;20003;-68
2023/03/17 05:53:22;;;;;;;12.32;4.85;;;;;;;;;;7383861;19;20034;-67
2023/03/17 05:55:47;;;;;;;13.70;4.85;;;;;;;;;;7380829;19;20003;-67
2023/03/17 05:58:14;;;;;;;12.65;4.95;;;;;;;;;;7388216;19;20473;-67
2023/03/17 06:00:40;;;;;;;10.27;4.97;;;;;;;;;;7383596;19;20510;-67
2023/03/17 06:03:06;;;;;;;8.35;5.05;;;;;;;;;;7388305;19;20653;-67
2023/03/17 06:05:33;;;;;;;10.02;4.82;;;;;;;;;;7383835;19;20002;-67
2023/03/17 06:07:58;;;;;;;9.95;4.97;;;;;;;;;;7383749;19;20011;-68
2023/03/17 06:10:24;;;;;;;9.13;5.03;;;;;;;;;;7385961;19;19994;-67
2023/03/17 06:12:49;;;;;;;10.68;4.70;;;;;;;;;;7386429;19;20335;-67
2023/03/17 06:15:15;;;;;;;15.10;5.40;;;;;;;;;;7385243;19;20006;-67
2023/03/17 06:17:41;;;;;;;10.40;5.95;;;;;;;;;;7382107;19;20058;-67
2023/03/17 06:20:07;;;;;;;11.25;5.70;;;;;;;;;;7390307;19;20002;-67
2023/03/17 06:22:33;;;;;;;9.48;4.90;;;;;;;;;;7387440;19;20385;-67
2023/03/17 06:24:58;;;;;;;10.60;5.07;;;;;;;;;;7384081;19;20009;-71
2023/03/17 06:27:24;;;;;;;9.88;4.68;;;;;;;;;;7384881;19;20003;-71
2023/03/17 06:29:49;;;;;;;8.63;5.13;;;;;;;;;;7389810;19;20478;-67
2023/03/17 06:32:14;;;;;;;10.00;4.97;;;;;;;;;;7361195;19;20002;-68
2023/03/17 06:34:41;;;;;;;8.80;4.90;;;;;;;;;;7388850;19;20508;-66
2023/03/17 06:37:07;;;;;;;8.43;4.80;;;;;;;;;;7387426;19;20007;-68
2023/03/17 06:39:32;;;;;;;9.85;5.15;;;;;;;;;;7390552;19;19998;-68
2023/03/17 06:41:58;;;;;;;7.72;4.75;;;;;;;;;;7384590;19;20009;-68
2023/03/17 06:44:23;;;;;;;8.93;4.70;;;;;;;;;;7388518;19;20006;-67
2023/03/17 06:46:48;;;;;;;10.85;4.55;;;;;;;;;;7386676;19;20003;-68
2023/03/17 06:49:14;;;;;;;16.00;5.10;;;;;;;;;;7388301;19;20015;-66
2023/03/17 06:51:39;;;;;;;9.52;4.95;;;;;;;;;;7386659;19;20005;-67
2023/03/17 06:54:06;;;;;;;8.82;4.90;;;;;;;;;;7388041;19;19995;-68
2023/03/17 06:56:31;;;;;;;10.05;5.50;;;;;;;;;;7384233;19;20007;-67
2023/03/17 06:58:57;;;;;;;9.23;4.70;;;;;;;;;;7390087;19;20035;-68
2023/03/17 07:01:23;;;;;;;8.77;5.18;;;;;;;;;;7382992;19;20030;-67
2023/03/17 07:03:48;;;;;;;9.65;4.75;;;;;;;;;;7387879;19;19998;-67
2023/03/17 07:06:14;;;;;;;7.72;4.57;;;;;;;;;;7385371;19;20019;-67
2023/03/17 07:08:40;;;;;;;10.57;5.10;;;;;;;;;;7390221;19;19995;-66
2023/03/17 07:11:06;;;;;;;9.73;4.80;;;;;;;;;;7387206;19;20024;-68
2023/03/17 07:13:34;;;;;;;8.00;4.68;;;;;;;;;;7387605;19;20002;-67
2023/03/17 07:16:01;;;;;;;12.52;5.18;;;;;;;;;;7389341;19;20009;-68
2023/03/17 07:18:28;;;;;;;10.18;5.40;;;;;;;;;;7386279;19;20019;-68
2023/03/17 07:20:53;;;;;;;10.48;5.10;;;;;;;;;;7387201;19;20003;-68
2023/03/17 07:23:21;;;;;;;12.52;5.70;;;;;;;;;;7388290;19;19998;-67
2023/03/17 07:25:46;;;;;;;7.60;4.82;;;;;;;;;;7387337;19;20383;-67
2023/03/17 07:28:13;;;;;;;10.77;5.13;;;;;;;;;;7390346;19;19994;-68
2023/03/17 07:30:39;;;;;;;9.70;5.25;;;;;;;;;;7385065;19;20010;-67
2023/03/17 07:33:05;;;;;;;9.40;4.72;;;;;;;;;;7396457;19;20362;-68
2023/03/17 07:35:32;;;;;;;10.35;4.47;;;;;;;;;;7391175;19;20033;-68
2023/03/17 07:37:57;;;;;;;7.50;4.57;;;;;;;;;;7393978;19;19998;-67
2023/03/17 07:40:23;;;;;;;7.80;4.45;;;;;;;;;;7394862;19;20022;-67
2023/03/17 07:42:48;;;;;;;8.02;3.70;;;;;;;;;;7396200;19;20012;-67
2023/03/17 07:45:14;;;;;;;10.07;4.45;;;;;;;;;;7395359;19;19994;-67
2023/03/17 07:47:39;;;;;;;9.45;4.60;;;;;;;;;;7395386;19;20001;-67
2023/03/17 07:50:05;;;;;;;8.90;4.43;;;;;;;;;;7395173;19;20452;-68
2023/03/17 07:52:30;;;;;;;11.40;4.57;;;;;;;;;;7391643;19;20008;-67
2023/03/17 07:54:57;;;;;;;8.15;4.57;;;;;;;;;;7392993;19;20005;-68
2023/03/17 07:57:23;;;;;;;11.90;4.75;;;;;;;;;;7393427;19;20002;-67
2023/03/17 07:59:49;;;;;;;7.65;4.55;;;;;;;;;;7394553;19;19998;-68
2023/03/17 08:02:16;;;;;;;7.82;4.80;;;;;;;;;;7394475;19;20089;-67
2023/03/17 08:04:42;;;;;;;8.15;4.50;;;;;;;;;;7390292;19;20019;-67
2023/03/17 08:07:09;;;;;;;4.75;2.75;;;;;;;;;;7393892;19;20035;-67
2023/03/17 08:09:36;;;;;;;7.75;4.22;;;;;;;;;;7395656;19;19999;-66
2023/03/17 08:12:02;;;;;;;7.20;4.43;;;;;;;;;;7393634;19;20282;-68
2023/03/17 08:14:28;;;;;;;8.90;4.60;;;;;;;;;;7394291;19;20083;-69
2023/03/17 08:16:53;;;;;;;8.05;4.75;;;;;;;;;;7392920;19;19996;-69
2023/03/17 08:19:18;;;;;;;9.98;4.57;;;;;;;;;;7393282;19;20351;-67
2023/03/17 08:21:44;;;;;;;7.88;4.30;;;;;;;;;;7395050;19;20005;-68
2023/03/17 08:24:09;;;;;;;8.40;4.10;;;;;;;;;;7392805;19;20015;-66
2023/03/17 08:26:35;;;;;;;8.38;4.88;;;;;;;;;;7392481;19;19998;-67
2023/03/17 08:29:00;;;;;;;8.93;4.93;;;;;;;;;;7392586;19;20523;-68
2023/03/17 08:31:25;;;;;;;8.50;4.25;;;;;;;;;;7393766;19;20003;-68
2023/03/17 08:33:53;;;;;;;7.25;4.50;;;;;;;;;;7393608;19;20006;-68
2023/03/17 08:36:20;;;;;;;12.90;5.15;;;;;;;;;;7391788;19;20006;-67
2023/03/17 08:38:46;;;;;;;11.80;4.80;;;;;;;;;;7390764;19;20002;-67
2023/03/17 08:41:15;;;;;;;11.13;4.53;;;;;;;;;;7389028;19;20530;-67
2023/03/17 08:43:42;;;;;;;8.45;4.60;;;;;;;;;;7392816;19;20370;-67
2023/03/17 08:46:22;;;;;;;7.95;4.68;;;;;;;;;;7391995;19;20003;-67
2023/03/17 08:48:50;;;;;;;8.33;4.93;;;;;;;;;;7390773;19;20015;-68
2023/03/17 08:51:16;;;;;;;9.32;5.03;;;;;;;;;;7392497;19;20026;-68
2023/03/17 08:53:42;;;;;;;8.13;4.72;;;;;;;;;;7393306;19;19998;-68
2023/03/17 08:56:08;;;;;;;9.32;4.50;;;;;;;;;;7391661;19;20002;-67
2023/03/17 08:58:35;;;;;;;9.90;4.75;;;;;;;;;;7390929;19;19995;-67
2023/03/17 09:01:02;;;;;;;9.80;4.30;;;;;;;;;;7388194;19;20122;-68
2023/03/17 09:03:28;;;;;;;9.75;4.50;;;;;;;;;;7391941;19;20067;-67
2023/03/17 09:05:54;;;;;;;7.78;4.53;;;;;;;;;;7390960;19;20026;-67
2023/03/17 09:08:20;;;;;;;10.80;4.95;;;;;;;;;;7394850;19;20002;-68
2023/03/17 09:10:46;;;;;;;12.35;4.70;;;;;;;;;;7390012;19;19998;-67
2023/03/17 09:13:12;;;;;;;9.95;5.25;;;;;;;;;;7392157;19;20006;-68
2023/03/17 09:15:38;;;;;;;8.50;4.63;;;;;;;;;;7391750;19;20078;-68
2023/03/17 09:18:05;;;;;;;8.80;4.95;;;;;;;;;;7392569;19;20024;-67
2023/03/17 09:20:31;;;;;;;9.73;5.15;;;;;;;;;;7389421;19;19998;-67
2023/03/17 09:22:57;;;;;;;12.25;5.40;;;;;;;;;;7394030;19;19990;-67
2023/03/17 09:25:23;;;;;;;8.30;4.90;;;;;;;;;;7392219;19;19995;-67
2023/03/17 09:27:48;;;;;;;9.48;4.82;;;;;;;;;;7393587;19;20459;-67
2023/03/17 09:30:15;;;;;;;10.40;4.93;;;;;;;;;;7392603;19;20006;-67
2023/03/17 09:32:41;;;;;;;8.30;5.20;;;;;;;;;;7392165;19;20033;-67
2023/03/17 09:35:07;;;;;;;10.15;4.72;;;;;;;;;;7389902;19;20379;-68
2023/03/17 09:37:33;;;;;;;7.22;4.32;;;;;;;;;;7393358;19;20019;-68
2023/03/17 09:39:59;;;;;;;7.90;4.50;;;;;;;;;;7392426;19;20039;-67
2023/03/17 09:42:44;;;;;;;9.57;4.70;;;;;;;;;;7391555;19;20080;-67
2023/03/17 09:45:20;;;;;;;11.10;4.70;;;;;;;;;;7391040;19;20204;-67
2023/03/17 09:47:53;;;;;;;8.98;4.90;;;;;;;;;;7392031;19;20003;-67
2023/03/17 09:50:55;;;;;;;9.00;4.95;;;;;;;;;;7391502;19;20005;-67
2023/03/17 09:53:26;;;;;;;9.75;4.97;;;;;;;;;;7389998;19;20026;-67
2023/03/17 09:55:54;;;;;;;;;;;;;;;;;;7390936;19;19991;-67
2023/03/17 09:58:28;;;;;;;9.93;5.10;;;;;;;;;;7392503;19;20392;-67
2023/03/17 10:00:53;;;;;;;8.90;4.63;;;;;;;;;;7387868;19;20583;-67
2023/03/17 10:03:19;;;;;;;8.35;4.65;;;;;;;;;;7390878;19;20015;-67
2023/03/17 10:05:45;;;;;;;10.75;4.45;;;;;;;;;;7388026;19;20404;-67
2023/03/17 10:08:30;;;;;;;10.02;4.57;;;;;;;;;;7391942;19;20006;-67
2023/03/17 10:11:09;;;;;;;8.10;4.55;;;;;;;;;;7390061;19;20090;-67
2023/03/17 10:14:02;;;;;;;7.78;4.30;;;;;;;;;;7388967;19;20003;-67
2023/03/17 10:17:00;;;;;;;7.32;4.43;;;;;;;;;;7391253;19;19998;-67
2023/03/17 10:19:33;;;;;;;6.18;3.95;;;;;;;;;;7384924;19;20413;-67
2023/03/17 10:22:15;;;;;;;6.43;3.67;;;;;;;;;;7390552;19;20078;-67
2023/03/17 10:24:47;;;;;;;6.38;3.60;;;;;;;;;;7388269;19;19995;-67
2023/03/17 10:27:14;;;;;;;6.90;4.28;;;;;;;;;;7389158;19;20085;-68
2023/03/17 10:29:40;;;;;;;10.65;4.63;;;;;;;;;;7389892;19;19994;-68
2023/03/17 10:32:09;;;;;;;8.77;4.40;;;;;;;;;;7390122;19;19990;-68
2023/03/17 10:34:36;;;;;;;6.47;4.10;;;;;;;;;;7387787;19;20011;-68
2023/03/17 10:37:11;;;;;;;9.50;4.57;;;;;;;;;;7387690;19;20002;-68
2023/03/17 10:39:48;;;;;;;8.57;4.40;;;;;;;;;;7389529;19;20018;-68
2023/03/17 10:42:23;;;;;;;7.70;4.22;;;;;;;;;;7390455;19;19995;-67
2023/03/17 10:44:51;;;;;;;9.77;4.57;;;;;;;;;;7387499;19;20409;-67
2023/03/17 10:47:55;;;;;;;8.18;4.47;;;;;;;;;;7388519;19;19999;-68
2023/03/17 10:50:30;;;;;;;9.48;4.60;;;;;;;;;;7389532;19;20002;-68
2023/03/17 10:53:04;;;;;;;8.02;4.60;;;;;;;;;;7389696;19;19995;-68
2023/03/17 10:55:41;;;;;;;10.23;4.93;;;;;;;;;;7389154;19;20042;-66
2023/03/17 10:58:17;;;;;;;9.27;4.43;;;;;;;;;;7388986;19;20096;-66
2023/03/17 11:01:07;;;;;;;8.40;4.57;;;;;;;;;;7385905;19;19995;-67
2023/03/17 11:03:37;;;;;;;8.93;3.85;;;;;;;;;;7384807;19;20002;-67
2023/03/17 11:06:07;;;;;;;7.47;4.10;;;;;;;;;;7388221;19;20036;-67
2023/03/17 11:08:53;;;;;;;12.05;4.63;;;;;;;;;;7387035;19;20024;-67
2023/03/17 11:11:28;;;;;;;7.95;4.00;;;;;;;;;;7387592;19;20007;-66
2023/03/17 11:14:12;;;;;;;6.97;4.30;;;;;;;;;;7388221;19;20009;-66
2023/03/17 11:16:47;;;;;;;9.07;4.78;;;;;;;;;;7382285;19;20465;-67
2023/03/17 11:19:15;;;;;;;8.80;4.88;;;;;;;;;;7382116;19;20368;-67
2023/03/17 11:21:58;;;;;;;8.65;4.15;;;;;;;;;;7383740;19;19999;-67
2023/03/17 11:24:29;;;;;;;8.13;4.20;;;;;;;;;;7385452;19;19995;-67
2023/03/17 11:27:03;;;;;;;10.02;4.55;;;;;;;;;;7382559;19;19995;-67
2023/03/17 11:29:51;;;;;;;8.55;4.40;;;;;;;;;;7384496;19;20002;-67
2023/03/17 11:32:38;;;;;;;8.55;4.40;;;;;;;;;;7386997;19;20512;-69
2023/03/17 11:35:23;;;;;;;8.75;4.80;;;;;;;;;;7386109;19;20027;-66
2023/03/17 11:38:10;;;;;;;12.57;5.03;;;;;;;;;;7388716;19;20006;-66
2023/03/17 11:41:04;;;;;;;7.97;4.50;;;;;;;;;;7384878;19;20074;-66
2023/03/17 11:43:39;;;;;;;7.03;4.22;;;;;;;;;;7388668;19;20464;-66
2023/03/17 11:46:30;;;;;;;13.48;5.40;;;;;;;;;;7387196;19;20477;-66
2023/03/17 11:48:59;;;;;;;9.35;4.60;;;;;;;;;;7385134;19;20070;-66
2023/03/17 11:51:29;;;;;;;10.93;5.00;;;;;;;;;;7387386;19;20131;-67
2023/03/17 11:54:16;;;;;;;12.02;5.80;;;;;;;;;;7388464;19;19998;-66
2023/03/17 11:56:48;;;;;;;10.93;5.10;;;;;;;;;;7386297;19;20073;-67
2023/03/17 11:59:37;;;;;;;9.63;5.43;;;;;;;;;;7387070;19;20015;-67
2023/03/17 12:02:14;;;;;;;11.23;5.40;;;;;;;;;;7387377;19;20067;-67
2023/03/17 12:04:52;;;;;;;11.10;5.63;;;;;;;;;;7385048;19;19998;-67
2023/03/17 12:07:23;;;;;;;13.55;5.85;;;;;;;;;;7386848;19;20090;-67
2023/03/17 12:10:09;;;;;;;9.65;5.30;;;;;;;;;;7387458;19;20254;-67
2023/03/17 12:12:43;;;;;;;11.02;5.50;;;;;;;;;;7386525;19;20463;-67
2023/03/17 12:15:17;;;;;;;10.85;5.55;;;;;;;;;;7391255;19;20009;-66
2023/03/17 12:17:58;;;;;;;9.95;5.60;;;;;;;;;;7394413;19;20007;-67
2023/03/17 12:20:33;;;;;;;10.32;5.55;;;;;;;;;;7393396;19;19990;-67
2023/03/17 12:23:32;;;;;;;10.95;5.70;;;;;;;;;;7391573;19;19999;-67
2023/03/17 12:26:09;;;;;;;11.30;6.07;;;;;;;;;;7393127;19;20013;-67
2023/03/17 12:28:44;;;;;;;13.35;6.57;;;;;;;;;;7393423;19;20309;-66
2023/03/17 12:31:19;;;;;;;10.88;5.95;;;;;;;;;;7388764;19;20088;-66
2023/03/17 12:34:08;;;;;;;12.18;6.00;;;;;;;;;;7390878;19;19999;-66
2023/03/17 12:36:35;;;;;;;12.35;6.97;;;;;;;;;;7392902;19;20002;-67
2023/03/17 12:39:08;;;;;;;13.57;6.25;;;;;;;;;;7390077;19;20009;-67
2023/03/17 12:42:00;;;;;;;15.20;6.47;;;;;;;;;;7391878;19;19994;-67
2023/03/17 12:44:35;;;;;;;13.10;6.50;;;;;;;;;;7393838;19;19998;-67
2023/03/17 12:47:12;;;;;;;12.95;6.38;;;;;;;;;;7390700;19;19995;-66
2023/03/17 12:50:03;;;;;;;10.63;5.55;;;;;;;;;;7390479;19;20571;-66
2023/03/17 12:52:59;;;;;;;12.15;6.45;;;;;;;;;;7387871;19;20002;-67
2023/03/17 12:55:29;;;;;;;11.23;6.25;;;;;;;;;;7393164;19;20005;-67
2023/03/17 12:58:02;;;;;;;15.20;6.87;;;;;;;;;;7393175;19;19994;-67
2023/03/17 13:00:30;;;;;;;12.23;6.18;;;;;;;;;;7391415;19;20005;-69
2023/03/17 13:03:21;;;;;;;11.27;6.82;;;;;;;;;;7393611;19;19999;-67
2023/03/17 13:05:50;;;;;;;11.82;6.20;;;;;;;;;;7391763;19;20019;-67
2023/03/17 13:08:32;;;;;;;10.40;5.80;;;;;;;;;;7390626;19;20006;-67
2023/03/17 13:11:44;;;;;;;14.77;6.55;;;;;;;;;;7389814;19;20005;-69
2023/03/17 13:14:38;;;;;;;12.45;6.10;;;;;;;;;;7390352;19;20005;-67
2023/03/17 13:17:19;;;;;;;12.73;6.65;;;;;;;;;;7389609;19;20019;-67
2023/03/17 13:19:56;;;;;;;12.50;5.75;;;;;;;;;;7389152;19;20006;-67
2023/03/17 13:22:21;;;;;;;12.30;6.13;;;;;;;;;;7389024;19;20001;-67
2023/03/17 13:24:50;;;;;;;14.40;6.05;;;;;;;;;;7388327;19;20460;-67
2023/03/17 13:27:31;;;;;;;10.60;5.72;;;;;;;;;;7388506;19;20092;-67
2023/03/17 13:29:57;;;;;;;12.68;6.30;;;;;;;;;;7388832;19;20005;-67
2023/03/17 13:32:23;;;;;;;9.40;5.40;;;;;;;;;;7390979;19;20062;-68
2023/03/17 13:35:16;;;;;;;8.98;5.13;;;;;;;;;;7389619;19;20006;-67
2023/03/17 13:38:07;;;;;;;12.20;5.88;;;;;;;;;;7387723;19;20014;-67
2023/03/17 13:40:38;;;;;;;11.50;5.60;;;;;;;;;;7390003;19;20518;-67
2023/03/17 13:43:22;;;;;;;;;;;;;;;;;;7391176;19;19999;-67
2023/03/17 13:45:48;;;;;;;13.90;5.70;;;;;;;;;;7385071;19;19957;-67
2023/03/17 13:48:30;;;;;;;10.80;5.38;;;;;;;;;;7393012;19;20006;-67
2023/03/17 13:51:07;;;;;;;11.68;5.40;;;;;;;;;;7388298;19;20009;-67
2023/03/17 13:53:36;;;;;;;9.60;5.50;;;;;;;;;;7390303;19;19999;-67
2023/03/17 13:56:17;;;;;;;13.77;5.85;;;;;;;;;;7387176;19;20527;-67
2023/03/17 13:59:04;;;;;;;;;;;;;;;;;;7389870;19;20003;-68
2023/03/17 14:01:36;;;;;;;11.27;5.88;;;;;;;;;;7390113;19;19919;-68
2023/03/17 14:04:04;;;;;;;11.32;5.55;;;;;;;;;;7388522;19;19999;-66
2023/03/17 14:06:30;;;;;;;11.27;5.60;;;;;;;;;;7384001;19;20022;-66
2023/03/17 14:09:09;;;;;;;11.88;5.40;;;;;;;;;;7387825;19;20024;-66
2023/03/17 14:11:37;;;;;;;12.52;5.55;;;;;;;;;;7388172;19;20026;-66
2023/03/17 14:14:21;;;;;;;13.05;5.45;;;;;;;;;;7392502;19;20002;-66
2023/03/17 14:16:58;;;;;;;10.80;5.15;;;;;;;;;;7387846;19;20026;-67
2023/03/17 14:19:26;;;;;;;11.77;5.03;;;;;;;;;;7389363;19;20005;-66
2023/03/17 14:21:52;;;;;;;11.38;5.22;;;;;;;;;;7386858;19;20031;-66
2023/03/17 14:24:21;;;;;;;8.77;5.22;;;;;;;;;;7385632;19;20003;-66
2023/03/17 14:26:51;;;;;;;10.45;4.65;;;;;;;;;;7387599;19;20003;-67
2023/03/17 14:29:20;;;;;;;16.52;4.75;;;;;;;;;;7387831;19;20358;-67
2023/03/17 14:31:48;;;;;;;8.55;4.43;;;;;;;;;;7387866;19;20007;-68
2023/03/17 14:34:14;;;;;;;8.75;4.38;;;;;;;;;;7389023;19;20026;-67
2023/03/17 14:36:40;;;;;;;12.77;4.22;;;;;;;;;;7386072;19;20031;-67
2023/03/17 14:39:06;;;;;;;10.23;4.72;;;;;;;;;;7386092;19;20002;-67
2023/03/17 14:41:33;;;;;;;10.48;5.00;;;;;;;;;;7385456;19;20011;-67
2023/03/17 14:44:00;;;;;;;9.73;4.82;;;;;;;;;;7387154;19;20003;-67
2023/03/17 14:46:30;;;;;;;8.73;5.00;;;;;;;;;;7384655;19;20034;-68
2023/03/17 14:49:16;;;;;;;12.23;4.65;;;;;;;;;;7388543;19;20122;-67
2023/03/17 14:51:42;;;;;;;10.52;4.50;;;;;;;;;;7384261;19;20104;-67
2023/03/17 14:54:17;;;;;;;10.77;5.40;;;;;;;;;;7380519;19;20034;-68